sensor_id;sensor_type;location;lat;lon;timestamp;P1;durP1;ratioP1;P2;durP2;ratioP2
74483;SDS011;62942;52.462;10.846;2023-05-10T00:01:00;3.4;;;5.4;;
74483;SDS011;62942;52.462;10.846;2023-05-10T00:02:00;3.4;;;4.7;;
74483;SDS011;62942;52.462;10.846;2023-05-10T00:03:10;3.5;;;4.9;;
74483;SDS011;62942;52.462;10.846;2023-05-10T00:04:20;3.6;;;5.3;;
74483;SDS011;62942;52.462;10.846;2023-05-10T00:05:30;3.5;;;6.1;;
74483;SDS011;62942;52.462;10.846;2023-05-10T00:06:30;3.4;;;5.3;;
74483;SDS011;62942;52.462;10.846;2023-05-10T00:07:40;3.7;;;5.9;;
74483;SDS011;62942;52.462;10.846;2023-05-10T00:08:50;3.6;;;5.2;;
74483;SDS011;62942;52.462;10.846;2023-05-10T00:09:50;3.4;;;6.8;;
74483;SDS011;62942;52.462;10.846;2023-05-10T00:11:00;3.5;;;5.5;;
74483;SDS011;62942;52.462;10.846;2023-05-10T00:12:10;3.4;;;5.4;;
74483;SDS011;62942;52.462;10.846;2023-05-10T00:13:20;3.7;;;5.5;;
74483;SDS011;62942;52.462;10.846;2023-05-10T00:14:20;3.6;;;5.7;;
74483;SDS011;62942;52.462;10.846;2023-05-10T00:15:30;3.6;;;5.6;;
74483;SDS011;62942;52.462;10.846;2023-05-10T00:16:40;3.3;;;5.1;;
74483;SDS011;62942;52.462;10.846;2023-05-10T00:17:40;3.5;;;7.4;;
74483;SDS011;62942;52.462;10.846;2023-05-10T00:18:50;3.5;;;6;;
74483;SDS011;62942;52.462;10.846;2023-05-10T00:19:50;3.4;;;5.1;;
74483;SDS011;62942;52.462;10.846;2023-05-10T00:21:00;3.6;;;5.2;;
74483;SDS011;62942;52.462;10.846;2023-05-10T00:22:10;3.6;;;6.8;;
74483;SDS011;62942;52.462;10.846;2023-05-10T00:23:20;3.4;;;5.1;;
74483;SDS011;62942;52.462;10.846;2023-05-10T00:24:20;3.5;;;5.2;;
74483;SDS011;62942;52.462;10.846;2023-05-10T00:25:30;3.6;;;5.5;;
74483;SDS011;62942;52.462;10.846;2023-05-10T00:26:40;3.6;;;6;;
74483;SDS011;62942;52.462;10.846;2023-05-10T00:27:50;3.6;;;6.7;;
74483;SDS011;62942;52.462;10.846;2023-05-10T00:28:50;3.6;;;5;;
74483;SDS011;62942;52.462;10.846;2023-05-10T00:30:00;3.6;;;5.4;;
74483;SDS011;62942;52.462;10.846;2023-05-10T00:31:10;3.5;;;5.3;;
74483;SDS011;62942;52.462;10.846;2023-05-10T00:32:20;3.5;;;5;;
74483;SDS011;62942;52.462;10.846;2023-05-10T00:33:30;3.7;;;5.2;;
74483;SDS011;62942;52.462;10.846;2023-05-10T00:34:40;3.7;;;7.4;;
74483;SDS011;62942;52.462;10.846;2023-05-10T00:35:40;3.6;;;5.8;;
74483;SDS011;62942;52.462;10.846;2023-05-10T00:36:50;3.5;;;5.7;;
74483;SDS011;62942;52.462;10.846;2023-05-10T00:37:59;3.4;;;5;;
74483;SDS011;62942;52.462;10.846;2023-05-10T00:39:00;3.4;;;5.2;;
74483;SDS011;62942;52.462;10.846;2023-05-10T00:40:00;3.6;;;5.3;;
74483;SDS011;62942;52.462;10.846;2023-05-10T00:41:09;3.6;;;5.2;;
74483;SDS011;62942;52.462;10.846;2023-05-10T00:42:10;3.5;;;5.8;;
74483;SDS011;62942;52.462;10.846;2023-05-10T00:43:20;3.6;;;5.1;;
74483;SDS011;62942;52.462;10.846;2023-05-10T00:44:30;3.6;;;7.2;;
74483;SDS011;62942;52.462;10.846;2023-05-10T00:45:40;3.6;;;6.3;;
74483;SDS011;62942;52.462;10.846;2023-05-10T00:46:50;3.6;;;5;;
74483;SDS011;62942;52.462;10.846;2023-05-10T00:48:00;3.6;;;5.1;;
74483;SDS011;62942;52.462;10.846;2023-05-10T00:49:10;3.7;;;5.9;;
74483;SDS011;62942;52.462;10.846;2023-05-10T00:50:10;3.9;;;5.7;;
74483;SDS011;62942;52.462;10.846;2023-05-10T00:51:10;3.9;;;5.8;;
74483;SDS011;62942;52.462;10.846;2023-05-10T00:52:20;3.8;;;5.9;;
74483;SDS011;62942;52.462;10.846;2023-05-10T00:53:30;3.8;;;5.8;;
74483;SDS011;62942;52.462;10.846;2023-05-10T00:54:39;3.6;;;6.1;;
74483;SDS011;62942;52.462;10.846;2023-05-10T00:55:49;3.7;;;6;;
74483;SDS011;62942;52.462;10.846;2023-05-10T00:56:50;3.5;;;5.9;;
74483;SDS011;62942;52.462;10.846;2023-05-10T00:57:59;3.7;;;5.6;;
74483;SDS011;62942;52.462;10.846;2023-05-10T00:59:09;3.7;;;6.1;;
74483;SDS011;62942;52.462;10.846;2023-05-10T01:00:20;3.6;;;5.5;;
74483;SDS011;62942;52.462;10.846;2023-05-10T01:01:29;3.8;;;6.2;;
74483;SDS011;62942;52.462;10.846;2023-05-10T01:02:39;3.7;;;7.2;;
74483;SDS011;62942;52.462;10.846;2023-05-10T01:03:49;3.8;;;7.1;;
74483;SDS011;62942;52.462;10.846;2023-05-10T01:05:00;3.6;;;5.8;;
74483;SDS011;62942;52.462;10.846;2023-05-10T01:06:09;3.8;;;5.9;;
74483;SDS011;62942;52.462;10.846;2023-05-10T01:07:19;3.8;;;5.8;;
74483;SDS011;62942;52.462;10.846;2023-05-10T01:08:29;3.9;;;5.6;;
74483;SDS011;62942;52.462;10.846;2023-05-10T01:09:39;3.6;;;6;;
74483;SDS011;62942;52.462;10.846;2023-05-10T01:10:49;3.8;;;7.3;;
74483;SDS011;62942;52.462;10.846;2023-05-10T01:11:59;3.6;;;4.6;;
74483;SDS011;62942;52.462;10.846;2023-05-10T01:13:09;3.7;;;5.6;;
74483;SDS011;62942;52.462;10.846;2023-05-10T01:14:20;3.9;;;6.1;;
74483;SDS011;62942;52.462;10.846;2023-05-10T01:15:30;3.9;;;5.7;;
74483;SDS011;62942;52.462;10.846;2023-05-10T01:16:40;3.9;;;6.8;;
74483;SDS011;62942;52.462;10.846;2023-05-10T01:17:49;3.8;;;5.2;;
74483;SDS011;62942;52.462;10.846;2023-05-10T01:18:59;3.9;;;5.6;;
74483;SDS011;62942;52.462;10.846;2023-05-10T01:20:10;4.2;;;7.8;;
74483;SDS011;62942;52.462;10.846;2023-05-10T01:21:22;3.8;;;7.1;;
74483;SDS011;62942;52.462;10.846;2023-05-10T01:22:37;3.9;;;6;;
74483;SDS011;62942;52.462;10.846;2023-05-10T01:23:44;4.1;;;9.4;;
74483;SDS011;62942;52.462;10.846;2023-05-10T01:24:58;3.8;;;6.2;;
74483;SDS011;62942;52.462;10.846;2023-05-10T01:26:12;4;;;7.4;;
74483;SDS011;62942;52.462;10.846;2023-05-10T01:27:16;4;;;6.6;;
74483;SDS011;62942;52.462;10.846;2023-05-10T01:28:25;3.8;;;5.8;;
74483;SDS011;62942;52.462;10.846;2023-05-10T01:30:37;4;;;6.5;;
74483;SDS011;62942;52.462;10.846;2023-05-10T01:31:03;3.9;;;7.1;;
74483;SDS011;62942;52.462;10.846;2023-05-10T01:31:59;4;;;6.8;;
74483;SDS011;62942;52.462;10.846;2023-05-10T01:33:00;4.1;;;5.6;;
74483;SDS011;62942;52.462;10.846;2023-05-10T01:34:11;3.9;;;6.4;;
74483;SDS011;62942;52.462;10.846;2023-05-10T01:35:21;3.9;;;5.8;;
74483;SDS011;62942;52.462;10.846;2023-05-10T01:36:30;3.9;;;5.4;;
74483;SDS011;62942;52.462;10.846;2023-05-10T01:37:32;3.8;;;6.4;;
74483;SDS011;62942;52.462;10.846;2023-05-10T01:38:41;4;;;6;;
74483;SDS011;62942;52.462;10.846;2023-05-10T01:39:51;4;;;6.3;;
74483;SDS011;62942;52.462;10.846;2023-05-10T01:41:01;3.8;;;5.8;;
74483;SDS011;62942;52.462;10.846;2023-05-10T01:42:10;4.2;;;6.1;;
74483;SDS011;62942;52.462;10.846;2023-05-10T01:43:21;3.9;;;6.1;;
74483;SDS011;62942;52.462;10.846;2023-05-10T01:44:21;4.1;;;6.8;;
74483;SDS011;62942;52.462;10.846;2023-05-10T01:45:30;4;;;9.1;;
74483;SDS011;62942;52.462;10.846;2023-05-10T01:46:39;4;;;5.5;;
74483;SDS011;62942;52.462;10.846;2023-05-10T01:47:50;4.2;;;5.8;;
74483;SDS011;62942;52.462;10.846;2023-05-10T01:48:59;4.4;;;7.3;;
74483;SDS011;62942;52.462;10.846;2023-05-10T01:50:01;4;;;6.5;;
74483;SDS011;62942;52.462;10.846;2023-05-10T01:51:09;4.1;;;5.4;;
74483;SDS011;62942;52.462;10.846;2023-05-10T01:52:10;4.1;;;5.8;;
74483;SDS011;62942;52.462;10.846;2023-05-10T01:53:19;3.9;;;6.5;;
74483;SDS011;62942;52.462;10.846;2023-05-10T01:54:20;4.1;;;6.6;;
74483;SDS011;62942;52.462;10.846;2023-05-10T01:55:30;4;;;6.1;;
74483;SDS011;62942;52.462;10.846;2023-05-10T01:56:39;4.1;;;5.8;;
74483;SDS011;62942;52.462;10.846;2023-05-10T01:57:51;4.1;;;7.9;;
74483;SDS011;62942;52.462;10.846;2023-05-10T01:58:49;3.9;;;6.6;;
74483;SDS011;62942;52.462;10.846;2023-05-10T02:00:00;4;;;5.1;;
74483;SDS011;62942;52.462;10.846;2023-05-10T02:01:09;4.3;;;6.2;;
74483;SDS011;62942;52.462;10.846;2023-05-10T02:02:10;3.9;;;6.5;;
74483;SDS011;62942;52.462;10.846;2023-05-10T02:03:10;4;;;5.9;;
74483;SDS011;62942;52.462;10.846;2023-05-10T02:04:19;4;;;5.8;;
74483;SDS011;62942;52.462;10.846;2023-05-10T02:05:19;4.3;;;5.5;;
74483;SDS011;62942;52.462;10.846;2023-05-10T02:06:29;3.9;;;6;;
74483;SDS011;62942;52.462;10.846;2023-05-10T02:07:39;4.2;;;7.5;;
74483;SDS011;62942;52.462;10.846;2023-05-10T02:08:49;3.9;;;6.2;;
74483;SDS011;62942;52.462;10.846;2023-05-10T02:09:59;4.2;;;7.2;;
74483;SDS011;62942;52.462;10.846;2023-05-10T02:10:59;4.1;;;5.5;;
74483;SDS011;62942;52.462;10.846;2023-05-10T02:12:09;4.2;;;6.1;;
74483;SDS011;62942;52.462;10.846;2023-05-10T02:13:19;4.3;;;6.1;;
74483;SDS011;62942;52.462;10.846;2023-05-10T02:14:19;3.9;;;6.5;;
74483;SDS011;62942;52.462;10.846;2023-05-10T02:15:29;4.1;;;8.2;;
74483;SDS011;62942;52.462;10.846;2023-05-10T02:16:39;4.1;;;7.4;;
74483;SDS011;62942;52.462;10.846;2023-05-10T02:17:49;4.1;;;5.7;;
74483;SDS011;62942;52.462;10.846;2023-05-10T02:18:59;4.2;;;7.7;;
74483;SDS011;62942;52.462;10.846;2023-05-10T02:20:09;4.2;;;6.3;;
74483;SDS011;62942;52.462;10.846;2023-05-10T02:21:10;4.2;;;9;;
74483;SDS011;62942;52.462;10.846;2023-05-10T02:22:19;4.5;;;6.8;;
74483;SDS011;62942;52.462;10.846;2023-05-10T02:23:29;4.2;;;5.7;;
74483;SDS011;62942;52.462;10.846;2023-05-10T02:24:39;4.3;;;6.5;;
74483;SDS011;62942;52.462;10.846;2023-05-10T02:25:49;4.4;;;8.3;;
74483;SDS011;62942;52.462;10.846;2023-05-10T02:26:59;4.4;;;6.4;;
74483;SDS011;62942;52.462;10.846;2023-05-10T02:28:09;4;;;5.7;;
74483;SDS011;62942;52.462;10.846;2023-05-10T02:29:19;4.4;;;6.8;;
74483;SDS011;62942;52.462;10.846;2023-05-10T02:30:30;4.3;;;6.3;;
74483;SDS011;62942;52.462;10.846;2023-05-10T02:31:39;4.2;;;7.3;;
74483;SDS011;62942;52.462;10.846;2023-05-10T02:32:49;4.3;;;6.9;;
74483;SDS011;62942;52.462;10.846;2023-05-10T02:33:49;4.1;;;6;;
74483;SDS011;62942;52.462;10.846;2023-05-10T02:34:49;4.4;;;6.6;;
74483;SDS011;62942;52.462;10.846;2023-05-10T02:35:59;4.1;;;5.6;;
74483;SDS011;62942;52.462;10.846;2023-05-10T02:36:59;4.5;;;6;;
74483;SDS011;62942;52.462;10.846;2023-05-10T02:37:59;4.4;;;7.1;;
74483;SDS011;62942;52.462;10.846;2023-05-10T02:38:59;4.2;;;6.9;;
74483;SDS011;62942;52.462;10.846;2023-05-10T02:40:09;4.1;;;8.2;;
74483;SDS011;62942;52.462;10.846;2023-05-10T02:41:09;4.4;;;6.5;;
74483;SDS011;62942;52.462;10.846;2023-05-10T02:42:20;4.3;;;6.4;;
74483;SDS011;62942;52.462;10.846;2023-05-10T02:43:19;4.4;;;7;;
74483;SDS011;62942;52.462;10.846;2023-05-10T02:44:19;4.4;;;6;;
74483;SDS011;62942;52.462;10.846;2023-05-10T02:45:20;4.4;;;7.1;;
74483;SDS011;62942;52.462;10.846;2023-05-10T02:46:29;4.3;;;6.7;;
74483;SDS011;62942;52.462;10.846;2023-05-10T02:47:39;4.4;;;6.2;;
74483;SDS011;62942;52.462;10.846;2023-05-10T02:48:49;4.4;;;6.8;;
74483;SDS011;62942;52.462;10.846;2023-05-10T02:49:59;4.2;;;7;;
74483;SDS011;62942;52.462;10.846;2023-05-10T02:51:00;4;;;6.4;;
74483;SDS011;62942;52.462;10.846;2023-05-10T02:52:09;4.1;;;5.9;;
74483;SDS011;62942;52.462;10.846;2023-05-10T02:53:20;4.5;;;8.3;;
74483;SDS011;62942;52.462;10.846;2023-05-10T02:54:20;4.3;;;8.3;;
74483;SDS011;62942;52.462;10.846;2023-05-10T02:55:31;4.4;;;6.8;;
74483;SDS011;62942;52.462;10.846;2023-05-10T02:56:31;4.2;;;6.4;;
74483;SDS011;62942;52.462;10.846;2023-05-10T02:57:41;4.3;;;6.3;;
74483;SDS011;62942;52.462;10.846;2023-05-10T02:58:39;4.3;;;7.3;;
74483;SDS011;62942;52.462;10.846;2023-05-10T02:59:39;4.4;;;6.4;;
74483;SDS011;62942;52.462;10.846;2023-05-10T03:00:49;4.6;;;7.6;;
74483;SDS011;62942;52.462;10.846;2023-05-10T03:01:59;4.5;;;6.6;;
74483;SDS011;62942;52.462;10.846;2023-05-10T03:02:59;3.8;;;5.3;;
74483;SDS011;62942;52.462;10.846;2023-05-10T03:04:09;4.4;;;6.2;;
74483;SDS011;62942;52.462;10.846;2023-05-10T03:05:19;4.2;;;6.1;;
74483;SDS011;62942;52.462;10.846;2023-05-10T03:06:29;4.2;;;7;;
74483;SDS011;62942;52.462;10.846;2023-05-10T03:07:39;4.1;;;5.8;;
74483;SDS011;62942;52.462;10.846;2023-05-10T03:08:49;4.2;;;6.2;;
74483;SDS011;62942;52.462;10.846;2023-05-10T03:09:49;4.3;;;7;;
74483;SDS011;62942;52.462;10.846;2023-05-10T03:11:04;4.2;;;6.7;;
74483;SDS011;62942;52.462;10.846;2023-05-10T03:12:11;4.3;;;6.5;;
74483;SDS011;62942;52.462;10.846;2023-05-10T03:13:12;4.2;;;6.4;;
74483;SDS011;62942;52.462;10.846;2023-05-10T03:14:21;4.4;;;5.6;;
74483;SDS011;62942;52.462;10.846;2023-05-10T03:15:31;4.4;;;7.2;;
74483;SDS011;62942;52.462;10.846;2023-05-10T03:16:41;4.3;;;6.2;;
74483;SDS011;62942;52.462;10.846;2023-05-10T03:17:52;4.5;;;7;;
74483;SDS011;62942;52.462;10.846;2023-05-10T03:19:01;4.3;;;6.7;;
74483;SDS011;62942;52.462;10.846;2023-05-10T03:20:02;4.2;;;5.8;;
74483;SDS011;62942;52.462;10.846;2023-05-10T03:21:10;4.4;;;7.3;;
74483;SDS011;62942;52.462;10.846;2023-05-10T03:22:21;4.4;;;6.3;;
74483;SDS011;62942;52.462;10.846;2023-05-10T03:23:30;4.4;;;6.1;;
74483;SDS011;62942;52.462;10.846;2023-05-10T03:24:29;4.4;;;7;;
74483;SDS011;62942;52.462;10.846;2023-05-10T03:25:29;4.4;;;7.5;;
74483;SDS011;62942;52.462;10.846;2023-05-10T03:26:29;4;;;6.6;;
74483;SDS011;62942;52.462;10.846;2023-05-10T03:27:40;4.4;;;7.3;;
74483;SDS011;62942;52.462;10.846;2023-05-10T03:28:49;4.3;;;9.3;;
74483;SDS011;62942;52.462;10.846;2023-05-10T03:29:49;4.5;;;7.2;;
74483;SDS011;62942;52.462;10.846;2023-05-10T03:30:59;4.2;;;6.6;;
74483;SDS011;62942;52.462;10.846;2023-05-10T03:31:59;4.1;;;6.9;;
74483;SDS011;62942;52.462;10.846;2023-05-10T03:33:03;4.2;;;6.3;;
74483;SDS011;62942;52.462;10.846;2023-05-10T03:34:09;4.1;;;6.6;;
74483;SDS011;62942;52.462;10.846;2023-05-10T03:35:10;4.3;;;6.6;;
74483;SDS011;62942;52.462;10.846;2023-05-10T03:36:19;4.5;;;6.7;;
74483;SDS011;62942;52.462;10.846;2023-05-10T03:37:29;4.7;;;7;;
74483;SDS011;62942;52.462;10.846;2023-05-10T03:38:29;4.5;;;5.7;;
74483;SDS011;62942;52.462;10.846;2023-05-10T03:39:39;4.7;;;7.2;;
74483;SDS011;62942;52.462;10.846;2023-05-10T03:40:49;4.4;;;6.7;;
74483;SDS011;62942;52.462;10.846;2023-05-10T03:41:49;4.5;;;6.7;;
74483;SDS011;62942;52.462;10.846;2023-05-10T03:42:59;4.3;;;6.1;;
74483;SDS011;62942;52.462;10.846;2023-05-10T03:43:59;4.5;;;7.4;;
74483;SDS011;62942;52.462;10.846;2023-05-10T03:45:09;4.2;;;5.6;;
74483;SDS011;62942;52.462;10.846;2023-05-10T03:46:09;4.5;;;6.4;;
74483;SDS011;62942;52.462;10.846;2023-05-10T03:47:09;4.6;;;6.6;;
74483;SDS011;62942;52.462;10.846;2023-05-10T03:48:09;4.5;;;6.7;;
74483;SDS011;62942;52.462;10.846;2023-05-10T03:49:19;4.6;;;5.9;;
74483;SDS011;62942;52.462;10.846;2023-05-10T03:50:29;4.4;;;6;;
74483;SDS011;62942;52.462;10.846;2023-05-10T03:51:39;4.4;;;6.1;;
74483;SDS011;62942;52.462;10.846;2023-05-10T03:52:49;4.6;;;7.6;;
74483;SDS011;62942;52.462;10.846;2023-05-10T03:53:49;4.2;;;5.2;;
74483;SDS011;62942;52.462;10.846;2023-05-10T03:54:59;4.3;;;5.4;;
74483;SDS011;62942;52.462;10.846;2023-05-10T03:55:59;4.2;;;6.1;;
74483;SDS011;62942;52.462;10.846;2023-05-10T03:57:09;4.3;;;6.8;;
74483;SDS011;62942;52.462;10.846;2023-05-10T03:58:10;4.5;;;6.9;;
74483;SDS011;62942;52.462;10.846;2023-05-10T03:59:19;4.4;;;6.6;;
74483;SDS011;62942;52.462;10.846;2023-05-10T04:00:29;4.3;;;5.5;;
74483;SDS011;62942;52.462;10.846;2023-05-10T04:01:39;4.3;;;5.6;;
74483;SDS011;62942;52.462;10.846;2023-05-10T04:02:39;4.4;;;7.2;;
74483;SDS011;62942;52.462;10.846;2023-05-10T04:03:49;4.3;;;6.3;;
74483;SDS011;62942;52.462;10.846;2023-05-10T04:04:49;4.6;;;6.4;;
74483;SDS011;62942;52.462;10.846;2023-05-10T04:05:59;4.5;;;6.6;;
74483;SDS011;62942;52.462;10.846;2023-05-10T04:07:09;4.3;;;6.7;;
74483;SDS011;62942;52.462;10.846;2023-05-10T04:08:09;4.4;;;7;;
74483;SDS011;62942;52.462;10.846;2023-05-10T04:09:19;4.3;;;6;;
74483;SDS011;62942;52.462;10.846;2023-05-10T04:10:29;4.3;;;7;;
74483;SDS011;62942;52.462;10.846;2023-05-10T04:11:39;4.3;;;5.7;;
74483;SDS011;62942;52.462;10.846;2023-05-10T04:12:49;4.4;;;7.1;;
74483;SDS011;62942;52.462;10.846;2023-05-10T04:13:59;4.3;;;5.8;;
74483;SDS011;62942;52.462;10.846;2023-05-10T04:14:59;4.3;;;6.9;;
74483;SDS011;62942;52.462;10.846;2023-05-10T04:16:09;4.3;;;6.5;;
74483;SDS011;62942;52.462;10.846;2023-05-10T04:17:09;4.5;;;7.2;;
74483;SDS011;62942;52.462;10.846;2023-05-10T04:18:09;4.1;;;6.4;;
74483;SDS011;62942;52.462;10.846;2023-05-10T04:19:09;4.2;;;5.5;;
74483;SDS011;62942;52.462;10.846;2023-05-10T04:20:09;4.3;;;8;;
74483;SDS011;62942;52.462;10.846;2023-05-10T04:21:19;4.3;;;5.6;;
74483;SDS011;62942;52.462;10.846;2023-05-10T04:22:19;4.3;;;6.2;;
74483;SDS011;62942;52.462;10.846;2023-05-10T04:23:19;4.4;;;6.4;;
74483;SDS011;62942;52.462;10.846;2023-05-10T04:24:29;4.3;;;6.5;;
74483;SDS011;62942;52.462;10.846;2023-05-10T04:25:39;4.1;;;6;;
74483;SDS011;62942;52.462;10.846;2023-05-10T04:26:49;4.5;;;6.2;;
74483;SDS011;62942;52.462;10.846;2023-05-10T04:27:59;4.2;;;7;;
74483;SDS011;62942;52.462;10.846;2023-05-10T04:29:09;4.2;;;6.2;;
74483;SDS011;62942;52.462;10.846;2023-05-10T04:30:19;4.5;;;6.7;;
74483;SDS011;62942;52.462;10.846;2023-05-10T04:31:29;4.6;;;6.1;;
74483;SDS011;62942;52.462;10.846;2023-05-10T04:32:29;4.4;;;6;;
74483;SDS011;62942;52.462;10.846;2023-05-10T04:33:39;4.3;;;6.8;;
74483;SDS011;62942;52.462;10.846;2023-05-10T04:34:49;4.3;;;5.5;;
74483;SDS011;62942;52.462;10.846;2023-05-10T04:35:59;4.4;;;6.6;;
74483;SDS011;62942;52.462;10.846;2023-05-10T04:37:09;4.5;;;7.2;;
74483;SDS011;62942;52.462;10.846;2023-05-10T04:38:09;4.2;;;5.6;;
74483;SDS011;62942;52.462;10.846;2023-05-10T04:39:19;4.4;;;8;;
74483;SDS011;62942;52.462;10.846;2023-05-10T04:40:29;4.2;;;6.5;;
74483;SDS011;62942;52.462;10.846;2023-05-10T04:41:29;4.3;;;6.5;;
74483;SDS011;62942;52.462;10.846;2023-05-10T04:42:39;4.3;;;6.2;;
74483;SDS011;62942;52.462;10.846;2023-05-10T04:43:49;4.2;;;6.8;;
74483;SDS011;62942;52.462;10.846;2023-05-10T04:44:59;4.3;;;7.3;;
74483;SDS011;62942;52.462;10.846;2023-05-10T04:45:59;4.1;;;6.6;;
74483;SDS011;62942;52.462;10.846;2023-05-10T04:47:09;4.3;;;6.2;;
74483;SDS011;62942;52.462;10.846;2023-05-10T04:48:19;4.3;;;6;;
74483;SDS011;62942;52.462;10.846;2023-05-10T04:49:29;4.3;;;6.1;;
74483;SDS011;62942;52.462;10.846;2023-05-10T04:50:39;4.5;;;7.8;;
74483;SDS011;62942;52.462;10.846;2023-05-10T04:51:49;4.6;;;7.5;;
74483;SDS011;62942;52.462;10.846;2023-05-10T04:52:59;4.4;;;5.6;;
74483;SDS011;62942;52.462;10.846;2023-05-10T04:54:09;4.4;;;7.2;;
74483;SDS011;62942;52.462;10.846;2023-05-10T04:55:19;4.1;;;6.3;;
74483;SDS011;62942;52.462;10.846;2023-05-10T04:56:29;4.1;;;5.8;;
74483;SDS011;62942;52.462;10.846;2023-05-10T04:57:29;3.9;;;5.2;;
74483;SDS011;62942;52.462;10.846;2023-05-10T04:58:39;4.2;;;5.5;;
74483;SDS011;62942;52.462;10.846;2023-05-10T04:59:49;4.1;;;6.5;;
74483;SDS011;62942;52.462;10.846;2023-05-10T05:00:49;4.4;;;6.2;;
74483;SDS011;62942;52.462;10.846;2023-05-10T05:01:59;4.1;;;6;;
74483;SDS011;62942;52.462;10.846;2023-05-10T05:03:09;4.3;;;6.6;;
74483;SDS011;62942;52.462;10.846;2023-05-10T05:04:09;3.9;;;6.4;;
74483;SDS011;62942;52.462;10.846;2023-05-10T05:05:09;4.2;;;7.1;;
74483;SDS011;62942;52.462;10.846;2023-05-10T05:06:09;4.2;;;5.3;;
74483;SDS011;62942;52.462;10.846;2023-05-10T05:07:19;4.1;;;6.4;;
74483;SDS011;62942;52.462;10.846;2023-05-10T05:08:19;4.2;;;7.1;;
74483;SDS011;62942;52.462;10.846;2023-05-10T05:09:29;4.1;;;6.2;;
74483;SDS011;62942;52.462;10.846;2023-05-10T05:10:39;4.1;;;6.3;;
74483;SDS011;62942;52.462;10.846;2023-05-10T05:11:49;4.2;;;6.5;;
74483;SDS011;62942;52.462;10.846;2023-05-10T05:12:49;4;;;7.2;;
74483;SDS011;62942;52.462;10.846;2023-05-10T05:13:59;3.9;;;6.4;;
74483;SDS011;62942;52.462;10.846;2023-05-10T05:15:09;4.2;;;6.5;;
74483;SDS011;62942;52.462;10.846;2023-05-10T05:16:09;4;;;6.4;;
74483;SDS011;62942;52.462;10.846;2023-05-10T05:17:19;4;;;5.5;;
74483;SDS011;62942;52.462;10.846;2023-05-10T05:18:19;4;;;6.3;;
74483;SDS011;62942;52.462;10.846;2023-05-10T05:19:30;3.8;;;6.2;;
74483;SDS011;62942;52.462;10.846;2023-05-10T05:20:39;3.9;;;6.6;;
74483;SDS011;62942;52.462;10.846;2023-05-10T05:21:49;4;;;6.1;;
74483;SDS011;62942;52.462;10.846;2023-05-10T05:22:49;3.7;;;5.3;;
74483;SDS011;62942;52.462;10.846;2023-05-10T05:23:59;4.2;;;7.1;;
74483;SDS011;62942;52.462;10.846;2023-05-10T05:25:09;4.1;;;6;;
74483;SDS011;62942;52.462;10.846;2023-05-10T05:26:19;4.2;;;7.7;;
74483;SDS011;62942;52.462;10.846;2023-05-10T05:27:29;4.2;;;5.7;;
74483;SDS011;62942;52.462;10.846;2023-05-10T05:28:39;4;;;5.6;;
74483;SDS011;62942;52.462;10.846;2023-05-10T05:29:49;3.8;;;5.3;;
74483;SDS011;62942;52.462;10.846;2023-05-10T05:30:59;3.9;;;8.3;;
74483;SDS011;62942;52.462;10.846;2023-05-10T05:31:59;4;;;6.6;;
74483;SDS011;62942;52.462;10.846;2023-05-10T05:33:09;3.9;;;6.8;;
74483;SDS011;62942;52.462;10.846;2023-05-10T05:34:19;4.4;;;6.4;;
74483;SDS011;62942;52.462;10.846;2023-05-10T05:35:19;4.3;;;5.7;;
74483;SDS011;62942;52.462;10.846;2023-05-10T05:36:29;3.9;;;7.9;;
74483;SDS011;62942;52.462;10.846;2023-05-10T05:37:39;4.3;;;6.3;;
74483;SDS011;62942;52.462;10.846;2023-05-10T05:38:49;4;;;6.8;;
74483;SDS011;62942;52.462;10.846;2023-05-10T05:39:59;4.1;;;6;;
74483;SDS011;62942;52.462;10.846;2023-05-10T05:41:09;4.1;;;6.3;;
74483;SDS011;62942;52.462;10.846;2023-05-10T05:42:09;4.1;;;8.1;;
74483;SDS011;62942;52.462;10.846;2023-05-10T05:43:09;4;;;5.2;;
74483;SDS011;62942;52.462;10.846;2023-05-10T05:44:19;3.9;;;6;;
74483;SDS011;62942;52.462;10.846;2023-05-10T05:45:29;3.9;;;7.1;;
74483;SDS011;62942;52.462;10.846;2023-05-10T05:46:29;4;;;6.1;;
74483;SDS011;62942;52.462;10.846;2023-05-10T05:47:39;4.1;;;6.1;;
74483;SDS011;62942;52.462;10.846;2023-05-10T05:48:49;3.8;;;5.9;;
74483;SDS011;62942;52.462;10.846;2023-05-10T05:49:59;4.1;;;6.1;;
74483;SDS011;62942;52.462;10.846;2023-05-10T05:51:09;4;;;6.6;;
74483;SDS011;62942;52.462;10.846;2023-05-10T05:52:19;4.1;;;5.5;;
74483;SDS011;62942;52.462;10.846;2023-05-10T05:53:19;3.9;;;5.8;;
74483;SDS011;62942;52.462;10.846;2023-05-10T05:54:29;4;;;6.9;;
74483;SDS011;62942;52.462;10.846;2023-05-10T05:55:29;3.9;;;6.1;;
74483;SDS011;62942;52.462;10.846;2023-05-10T05:56:39;4;;;6.6;;
74483;SDS011;62942;52.462;10.846;2023-05-10T05:57:49;4.4;;;7.1;;
74483;SDS011;62942;52.462;10.846;2023-05-10T05:58:59;4.1;;;7.1;;
74483;SDS011;62942;52.462;10.846;2023-05-10T06:00:09;4;;;6.3;;
74483;SDS011;62942;52.462;10.846;2023-05-10T06:01:19;3.9;;;6.3;;
74483;SDS011;62942;52.462;10.846;2023-05-10T06:02:19;4.4;;;7.7;;
74483;SDS011;62942;52.462;10.846;2023-05-10T06:03:29;4.3;;;7.1;;
74483;SDS011;62942;52.462;10.846;2023-05-10T06:04:39;4;;;6.6;;
74483;SDS011;62942;52.462;10.846;2023-05-10T06:05:49;4;;;5.6;;
74483;SDS011;62942;52.462;10.846;2023-05-10T06:06:59;4.3;;;6.2;;
74483;SDS011;62942;52.462;10.846;2023-05-10T06:08:09;4;;;5.4;;
74483;SDS011;62942;52.462;10.846;2023-05-10T06:09:09;5.2;;;7.7;;
74483;SDS011;62942;52.462;10.846;2023-05-10T06:10:19;5.2;;;7.4;;
74483;SDS011;62942;52.462;10.846;2023-05-10T06:11:29;5.1;;;7.5;;
74483;SDS011;62942;52.462;10.846;2023-05-10T06:12:39;4.6;;;6.9;;
74483;SDS011;62942;52.462;10.846;2023-05-10T06:13:39;4.5;;;7.4;;
74483;SDS011;62942;52.462;10.846;2023-05-10T06:14:49;4.3;;;6.3;;
74483;SDS011;62942;52.462;10.846;2023-05-10T06:15:49;4.1;;;6.6;;
74483;SDS011;62942;52.462;10.846;2023-05-10T06:16:59;4.5;;;6.4;;
74483;SDS011;62942;52.462;10.846;2023-05-10T06:17:59;4.8;;;7.7;;
74483;SDS011;62942;52.462;10.846;2023-05-10T06:19:09;4.2;;;6.2;;
74483;SDS011;62942;52.462;10.846;2023-05-10T06:20:19;4.5;;;8.3;;
74483;SDS011;62942;52.462;10.846;2023-05-10T06:21:19;4.1;;;6;;
74483;SDS011;62942;52.462;10.846;2023-05-10T06:22:29;4.1;;;6.6;;
74483;SDS011;62942;52.462;10.846;2023-05-10T06:23:39;4;;;6.6;;
74483;SDS011;62942;52.462;10.846;2023-05-10T06:24:49;4;;;6.4;;
74483;SDS011;62942;52.462;10.846;2023-05-10T06:25:59;4.3;;;8.3;;
74483;SDS011;62942;52.462;10.846;2023-05-10T06:26:59;4.1;;;6;;
74483;SDS011;62942;52.462;10.846;2023-05-10T06:27:59;4.1;;;6.1;;
74483;SDS011;62942;52.462;10.846;2023-05-10T06:29:09;4.2;;;6.2;;
74483;SDS011;62942;52.462;10.846;2023-05-10T06:30:19;4.3;;;5.9;;
74483;SDS011;62942;52.462;10.846;2023-05-10T06:31:29;4.2;;;7.4;;
74483;SDS011;62942;52.462;10.846;2023-05-10T06:32:39;4.3;;;7.9;;
74483;SDS011;62942;52.462;10.846;2023-05-10T06:33:49;4.3;;;5.4;;
74483;SDS011;62942;52.462;10.846;2023-05-10T06:34:59;4.2;;;7.4;;
74483;SDS011;62942;52.462;10.846;2023-05-10T06:36:09;4.2;;;7.7;;
74483;SDS011;62942;52.462;10.846;2023-05-10T06:37:19;3.9;;;6.4;;
74483;SDS011;62942;52.462;10.846;2023-05-10T06:38:19;4.3;;;7.4;;
74483;SDS011;62942;52.462;10.846;2023-05-10T06:39:29;4.2;;;6.7;;
74483;SDS011;62942;52.462;10.846;2023-05-10T06:40:29;4.4;;;7.5;;
74483;SDS011;62942;52.462;10.846;2023-05-10T06:41:39;4.3;;;5.8;;
74483;SDS011;62942;52.462;10.846;2023-05-10T06:42:49;4.2;;;6.3;;
74483;SDS011;62942;52.462;10.846;2023-05-10T06:43:59;4.1;;;6.5;;
74483;SDS011;62942;52.462;10.846;2023-05-10T06:44:59;4.2;;;9.1;;
74483;SDS011;62942;52.462;10.846;2023-05-10T06:46:09;4.2;;;7.8;;
74483;SDS011;62942;52.462;10.846;2023-05-10T06:47:19;4.2;;;6.7;;
74483;SDS011;62942;52.462;10.846;2023-05-10T06:48:19;4;;;5.7;;
74483;SDS011;62942;52.462;10.846;2023-05-10T06:49:29;4;;;6.3;;
74483;SDS011;62942;52.462;10.846;2023-05-10T06:50:39;4.1;;;5.8;;
74483;SDS011;62942;52.462;10.846;2023-05-10T06:51:49;4;;;6;;
74483;SDS011;62942;52.462;10.846;2023-05-10T06:52:49;4.2;;;6.1;;
74483;SDS011;62942;52.462;10.846;2023-05-10T06:53:49;4.2;;;5.8;;